sensor_id;sensor_type;location;lat;lon;timestamp;P1;durP1;ratioP1;P2;durP2;ratioP2
44000;SDS011;29660;42.892;24.710;2023-04-25T00:02:33;6.60;;;5.20;;
44000;SDS011;29660;42.892;24.710;2023-04-25T00:07:57;7.93;;;6.32;;
44000;SDS011;29660;42.892;24.710;2023-04-25T00:13:19;11.18;;;7.93;;
44000;SDS011;29660;42.892;24.710;2023-04-25T00:18:42;8.57;;;7.45;;
44000;SDS011;29660;42.892;24.710;2023-04-25T00:24:04;10.48;;;6.03;;
44000;SDS011;29660;42.892;24.710;2023-04-25T00:29:27;7.13;;;6.40;;
44000;SDS011;29660;42.892;24.710;2023-04-25T00:34:49;10.57;;;8.57;;
44000;SDS011;29660;42.892;24.710;2023-04-25T00:40:11;11.15;;;9.13;;
44000;SDS011;29660;42.892;24.710;2023-04-25T00:45:34;12.35;;;8.25;;
44000;SDS011;29660;42.892;24.710;2023-04-25T00:51:01;17.50;;;11.02;;
44000;SDS011;29660;42.892;24.710;2023-04-25T00:56:23;10.68;;;7.70;;
44000;SDS011;29660;42.892;24.710;2023-04-25T01:01:45;8.70;;;6.10;;
44000;SDS011;29660;42.892;24.710;2023-04-25T01:07:08;8.18;;;4.45;;
44000;SDS011;29660;42.892;24.710;2023-04-25T01:12:31;5.25;;;3.50;;
44000;SDS011;29660;42.892;24.710;2023-04-25T01:17:54;5.45;;;3.03;;
44000;SDS011;29660;42.892;24.710;2023-04-25T01:23:17;6.55;;;4.57;;
44000;SDS011;29660;42.892;24.710;2023-04-25T01:28:41;7.25;;;5.78;;
44000;SDS011;29660;42.892;24.710;2023-04-25T01:34:05;7.65;;;6.00;;
44000;SDS011;29660;42.892;24.710;2023-04-25T01:39:27;8.40;;;5.38;;
44000;SDS011;29660;42.892;24.710;2023-04-25T01:44:49;10.57;;;9.38;;
44000;SDS011;29660;42.892;24.710;2023-04-25T01:50:12;14.60;;;13.05;;
44000;SDS011;29660;42.892;24.710;2023-04-25T01:55:35;15.00;;;13.27;;
44000;SDS011;29660;42.892;24.710;2023-04-25T02:01:01;10.18;;;9.07;;
44000;SDS011;29660;42.892;24.710;2023-04-25T02:11:52;7.85;;;5.10;;
44000;SDS011;29660;42.892;24.710;2023-04-25T02:17:21;13.43;;;7.93;;
44000;SDS011;29660;42.892;24.710;2023-04-25T02:22:45;16.88;;;12.00;;
44000;SDS011;29660;42.892;24.710;2023-04-25T02:28:07;7.10;;;6.40;;
44000;SDS011;29660;42.892;24.710;2023-04-25T02:33:30;7.38;;;6.68;;
44000;SDS011;29660;42.892;24.710;2023-04-25T02:39:11;8.75;;;6.22;;
44000;SDS011;29660;42.892;24.710;2023-04-25T02:44:33;8.50;;;6.45;;
44000;SDS011;29660;42.892;24.710;2023-04-25T02:49:55;9.82;;;5.38;;
44000;SDS011;29660;42.892;24.710;2023-04-25T02:55:17;7.70;;;4.80;;
44000;SDS011;29660;42.892;24.710;2023-04-25T03:00:40;8.95;;;5.10;;
44000;SDS011;29660;42.892;24.710;2023-04-25T03:06:03;5.70;;;4.40;;
44000;SDS011;29660;42.892;24.710;2023-04-25T03:11:27;10.30;;;4.90;;
44000;SDS011;29660;42.892;24.710;2023-04-25T03:16:49;11.85;;;6.60;;
44000;SDS011;29660;42.892;24.710;2023-04-25T03:22:11;7.20;;;5.60;;
44000;SDS011;29660;42.892;24.710;2023-04-25T03:27:34;8.88;;;7.18;;
44000;SDS011;29660;42.892;24.710;2023-04-25T03:32:58;14.82;;;8.20;;
44000;SDS011;29660;42.892;24.710;2023-04-25T03:38:21;19.77;;;17.70;;
44000;SDS011;29660;42.892;24.710;2023-04-25T03:43:43;12.48;;;8.95;;
44000;SDS011;29660;42.892;24.710;2023-04-25T03:49:07;15.18;;;10.25;;
44000;SDS011;29660;42.892;24.710;2023-04-25T03:54:59;13.98;;;7.28;;
44000;SDS011;29660;42.892;24.710;2023-04-25T04:00:22;16.48;;;11.13;;
44000;SDS011;29660;42.892;24.710;2023-04-25T04:05:47;13.43;;;9.93;;
44000;SDS011;29660;42.892;24.710;2023-04-25T04:11:09;18.23;;;14.95;;
44000;SDS011;29660;42.892;24.710;2023-04-25T04:16:32;34.78;;;27.77;;
44000;SDS011;29660;42.892;24.710;2023-04-25T04:21:56;37.70;;;29.38;;
44000;SDS011;29660;42.892;24.710;2023-04-25T04:27:18;18.83;;;14.85;;
44000;SDS011;29660;42.892;24.710;2023-04-25T04:32:47;14.77;;;12.95;;
44000;SDS011;29660;42.892;24.710;2023-04-25T04:38:11;16.50;;;11.80;;
44000;SDS011;29660;42.892;24.710;2023-04-25T04:43:35;21.05;;;18.00;;
44000;SDS011;29660;42.892;24.710;2023-04-25T04:49:21;21.73;;;16.52;;
44000;SDS011;29660;42.892;24.710;2023-04-25T04:55:02;28.35;;;23.40;;
44000;SDS011;29660;42.892;24.710;2023-04-25T05:00:38;23.08;;;19.05;;
44000;SDS011;29660;42.892;24.710;2023-04-25T05:06:24;20.40;;;14.82;;
44000;SDS011;29660;42.892;24.710;2023-04-25T05:12:05;20.83;;;13.88;;
44000;SDS011;29660;42.892;24.710;2023-04-25T05:17:45;14.93;;;11.93;;
44000;SDS011;29660;42.892;24.710;2023-04-25T05:23:35;16.25;;;13.15;;
44000;SDS011;29660;42.892;24.710;2023-04-25T05:29:06;13.45;;;12.00;;
44000;SDS011;29660;42.892;24.710;2023-04-25T05:34:54;14.68;;;12.15;;
44000;SDS011;29660;42.892;24.710;2023-04-25T05:40:21;20.63;;;12.98;;
44000;SDS011;29660;42.892;24.710;2023-04-25T05:45:55;19.48;;;14.30;;
44000;SDS011;29660;42.892;24.710;2023-04-25T05:51:39;18.83;;;13.65;;
44000;SDS011;29660;42.892;24.710;2023-04-25T05:57:23;15.30;;;13.02;;
44000;SDS011;29660;42.892;24.710;2023-04-25T06:02:49;18.92;;;15.40;;
44000;SDS011;29660;42.892;24.710;2023-04-25T06:08:12;17.58;;;13.82;;
44000;SDS011;29660;42.892;24.710;2023-04-25T06:13:34;13.68;;;10.20;;
44000;SDS011;29660;42.892;24.710;2023-04-25T06:18:57;13.45;;;10.60;;
44000;SDS011;29660;42.892;24.710;2023-04-25T06:24:20;12.15;;;8.05;;
44000;SDS011;29660;42.892;24.710;2023-04-25T06:29:44;9.60;;;6.68;;
44000;SDS011;29660;42.892;24.710;2023-04-25T06:35:06;8.50;;;6.50;;
44000;SDS011;29660;42.892;24.710;2023-04-25T06:40:28;9.57;;;6.53;;
44000;SDS011;29660;42.892;24.710;2023-04-25T06:45:51;7.93;;;5.05;;
44000;SDS011;29660;42.892;24.710;2023-04-25T06:51:15;7.97;;;3.60;;
44000;SDS011;29660;42.892;24.710;2023-04-25T06:56:38;10.25;;;4.40;;
44000;SDS011;29660;42.892;24.710;2023-04-25T07:02:08;7.97;;;4.82;;
44000;SDS011;29660;42.892;24.710;2023-04-25T07:07:31;13.82;;;6.75;;
44000;SDS011;29660;42.892;24.710;2023-04-25T07:12:53;25.13;;;19.13;;
44000;SDS011;29660;42.892;24.710;2023-04-25T07:18:15;45.63;;;29.50;;
44000;SDS011;29660;42.892;24.710;2023-04-25T07:23:38;35.45;;;22.42;;
44000;SDS011;29660;42.892;24.710;2023-04-25T07:29:07;25.08;;;15.20;;
44000;SDS011;29660;42.892;24.710;2023-04-25T07:34:30;15.65;;;7.97;;
44000;SDS011;29660;42.892;24.710;2023-04-25T07:39:54;6.72;;;5.25;;
44000;SDS011;29660;42.892;24.710;2023-04-25T07:45:16;7.10;;;3.97;;
44000;SDS011;29660;42.892;24.710;2023-04-25T07:50:39;11.02;;;6.95;;
44000;SDS011;29660;42.892;24.710;2023-04-25T07:56:01;4.65;;;3.75;;
44000;SDS011;29660;42.892;24.710;2023-04-25T08:01:27;2.25;;;1.70;;
44000;SDS011;29660;42.892;24.710;2023-04-25T08:06:53;3.45;;;2.38;;
44000;SDS011;29660;42.892;24.710;2023-04-25T08:12:19;4.97;;;2.13;;
44000;SDS011;29660;42.892;24.710;2023-04-25T08:17:44;4.53;;;2.08;;
44000;SDS011;29660;42.892;24.710;2023-04-25T08:23:07;10.80;;;6.05;;
44000;SDS011;29660;42.892;24.710;2023-04-25T08:34:09;14.73;;;8.15;;
44000;SDS011;29660;42.892;24.710;2023-04-25T08:39:41;10.90;;;6.88;;
44000;SDS011;29660;42.892;24.710;2023-04-25T08:45:39;13.15;;;8.05;;
44000;SDS011;29660;42.892;24.710;2023-04-25T08:51:07;14.63;;;6.32;;
44000;SDS011;29660;42.892;24.710;2023-04-25T08:56:33;14.27;;;6.22;;
44000;SDS011;29660;42.892;24.710;2023-04-25T09:01:57;10.45;;;6.10;;
44000;SDS011;29660;42.892;24.710;2023-04-25T09:07:19;12.10;;;5.90;;
44000;SDS011;29660;42.892;24.710;2023-04-25T09:12:44;6.88;;;5.43;;
44000;SDS011;29660;42.892;24.710;2023-04-25T09:18:07;5.18;;;3.58;;
44000;SDS011;29660;42.892;24.710;2023-04-25T09:23:38;5.60;;;3.05;;
44000;SDS011;29660;42.892;24.710;2023-04-25T09:29:09;5.90;;;2.70;;
44000;SDS011;29660;42.892;24.710;2023-04-25T09:34:42;3.03;;;1.50;;
44000;SDS011;29660;42.892;24.710;2023-04-25T09:40:07;1.70;;;1.20;;
44000;SDS011;29660;42.892;24.710;2023-04-25T09:45:43;3.45;;;1.30;;
44000;SDS011;29660;42.892;24.710;2023-04-25T09:51:09;2.75;;;1.08;;
44000;SDS011;29660;42.892;24.710;2023-04-25T09:56:35;7.03;;;2.42;;
44000;SDS011;29660;42.892;24.710;2023-04-25T10:02:01;3.53;;;1.50;;
44000;SDS011;29660;42.892;24.710;2023-04-25T10:07:30;1.75;;;1.33;;
44000;SDS011;29660;42.892;24.710;2023-04-25T10:12:54;3.33;;;1.40;;
44000;SDS011;29660;42.892;24.710;2023-04-25T10:18:16;5.28;;;2.00;;
44000;SDS011;29660;42.892;24.710;2023-04-25T10:23:41;6.05;;;2.90;;
44000;SDS011;29660;42.892;24.710;2023-04-25T10:29:04;4.78;;;2.00;;
44000;SDS011;29660;42.892;24.710;2023-04-25T10:34:40;4.97;;;2.20;;
44000;SDS011;29660;42.892;24.710;2023-04-25T10:40:10;4.40;;;1.50;;
44000;SDS011;29660;42.892;24.710;2023-04-25T10:45:50;3.13;;;1.80;;
44000;SDS011;29660;42.892;24.710;2023-04-25T10:57:01;6.13;;;2.35;;
44000;SDS011;29660;42.892;24.710;2023-04-25T11:02:25;2.00;;;1.20;;
44000;SDS011;29660;42.892;24.710;2023-04-25T11:07:50;1.60;;;1.50;;
44000;SDS011;29660;42.892;24.710;2023-04-25T11:13:28;2.30;;;1.50;;
44000;SDS011;29660;42.892;24.710;2023-04-25T11:18:52;1.92;;;1.38;;
44000;SDS011;29660;42.892;24.710;2023-04-25T11:24:33;16.52;;;7.82;;
44000;SDS011;29660;42.892;24.710;2023-04-25T11:29:56;6.28;;;4.43;;
44000;SDS011;29660;42.892;24.710;2023-04-25T11:35:19;3.90;;;3.05;;
44000;SDS011;29660;42.892;24.710;2023-04-25T11:40:44;5.25;;;3.95;;
44000;SDS011;29660;42.892;24.710;2023-04-25T11:46:11;8.02;;;3.78;;
44000;SDS011;29660;42.892;24.710;2023-04-25T11:51:44;9.38;;;4.47;;
44000;SDS011;29660;42.892;24.710;2023-04-25T11:57:08;7.82;;;6.25;;
44000;SDS011;29660;42.892;24.710;2023-04-25T12:02:30;8.75;;;4.97;;
44000;SDS011;29660;42.892;24.710;2023-04-25T12:07:52;4.93;;;3.47;;
44000;SDS011;29660;42.892;24.710;2023-04-25T12:13:21;3.65;;;2.53;;
44000;SDS011;29660;42.892;24.710;2023-04-25T12:18:45;5.03;;;2.50;;
44000;SDS011;29660;42.892;24.710;2023-04-25T12:29:34;5.07;;;2.13;;
44000;SDS011;29660;42.892;24.710;2023-04-25T12:35:09;4.63;;;2.15;;
44000;SDS011;29660;42.892;24.710;2023-04-25T12:40:32;2.20;;;1.90;;
44000;SDS011;29660;42.892;24.710;2023-04-25T12:45:54;6.97;;;3.38;;
44000;SDS011;29660;42.892;24.710;2023-04-25T12:51:18;9.07;;;4.57;;
44000;SDS011;29660;42.892;24.710;2023-04-25T12:56:40;6.50;;;3.60;;
44000;SDS011;29660;42.892;24.710;2023-04-25T13:02:02;6.20;;;3.30;;
44000;SDS011;29660;42.892;24.710;2023-04-25T13:07:24;5.97;;;3.78;;
44000;SDS011;29660;42.892;24.710;2023-04-25T13:12:46;8.20;;;3.92;;
44000;SDS011;29660;42.892;24.710;2023-04-25T13:18:09;8.27;;;5.00;;
44000;SDS011;29660;42.892;24.710;2023-04-25T13:23:49;5.05;;;1.52;;
44000;SDS011;29660;42.892;24.710;2023-04-25T13:29:12;4.53;;;2.50;;
44000;SDS011;29660;42.892;24.710;2023-04-25T13:34:35;6.35;;;3.63;;
44000;SDS011;29660;42.892;24.710;2023-04-25T13:39:57;2.85;;;2.20;;
44000;SDS011;29660;42.892;24.710;2023-04-25T13:45:20;2.15;;;1.77;;
44000;SDS011;29660;42.892;24.710;2023-04-25T13:51:01;2.03;;;1.40;;
44000;SDS011;29660;42.892;24.710;2023-04-25T13:56:23;1.23;;;1.02;;
44000;SDS011;29660;42.892;24.710;2023-04-25T14:01:45;3.60;;;0.90;;
44000;SDS011;29660;42.892;24.710;2023-04-25T14:07:08;7.10;;;3.38;;
44000;SDS011;29660;42.892;24.710;2023-04-25T14:12:30;3.60;;;1.40;;
44000;SDS011;29660;42.892;24.710;2023-04-25T14:17:52;1.20;;;0.80;;
44000;SDS011;29660;42.892;24.710;2023-04-25T14:23:14;3.70;;;2.33;;
44000;SDS011;29660;42.892;24.710;2023-04-25T14:28:37;2.38;;;1.60;;
44000;SDS011;29660;42.892;24.710;2023-04-25T14:33:59;2.30;;;1.30;;
44000;SDS011;29660;42.892;24.710;2023-04-25T14:39:21;8.90;;;3.60;;
44000;SDS011;29660;42.892;24.710;2023-04-25T14:44:43;4.18;;;3.05;;
44000;SDS011;29660;42.892;24.710;2023-04-25T14:50:07;7.43;;;5.05;;
44000;SDS011;29660;42.892;24.710;2023-04-25T14:55:30;8.73;;;5.70;;
44000;SDS011;29660;42.892;24.710;2023-04-25T15:00:52;6.45;;;4.40;;
44000;SDS011;29660;42.892;24.710;2023-04-25T15:06:14;7.07;;;4.30;;
44000;SDS011;29660;42.892;24.710;2023-04-25T15:11:37;4.63;;;4.13;;
44000;SDS011;29660;42.892;24.710;2023-04-25T15:17:00;6.60;;;4.00;;
44000;SDS011;29660;42.892;24.710;2023-04-25T15:22:22;16.50;;;11.02;;
44000;SDS011;29660;42.892;24.710;2023-04-25T15:27:45;25.92;;;14.50;;
44000;SDS011;29660;42.892;24.710;2023-04-25T15:33:09;6.60;;;3.95;;
44000;SDS011;29660;42.892;24.710;2023-04-25T15:38:32;6.07;;;4.13;;
44000;SDS011;29660;42.892;24.710;2023-04-25T15:44:13;7.25;;;3.60;;
44000;SDS011;29660;42.892;24.710;2023-04-25T15:49:35;6.63;;;3.90;;
44000;SDS011;29660;42.892;24.710;2023-04-25T15:54:57;7.70;;;4.93;;
44000;SDS011;29660;42.892;24.710;2023-04-25T16:00:19;5.28;;;4.70;;
44000;SDS011;29660;42.892;24.710;2023-04-25T16:05:43;13.18;;;7.57;;
44000;SDS011;29660;42.892;24.710;2023-04-25T16:11:05;10.45;;;5.45;;
44000;SDS011;29660;42.892;24.710;2023-04-25T16:16:27;7.35;;;5.70;;
44000;SDS011;29660;42.892;24.710;2023-04-25T16:21:50;86.28;;;64.18;;
44000;SDS011;29660;42.892;24.710;2023-04-25T16:27:12;20.23;;;15.20;;
44000;SDS011;29660;42.892;24.710;2023-04-25T16:32:35;11.43;;;9.85;;
44000;SDS011;29660;42.892;24.710;2023-04-25T16:37:58;13.82;;;11.10;;
44000;SDS011;29660;42.892;24.710;2023-04-25T16:43:21;44.13;;;31.50;;
44000;SDS011;29660;42.892;24.710;2023-04-25T16:48:44;14.80;;;10.43;;
44000;SDS011;29660;42.892;24.710;2023-04-25T16:54:06;12.77;;;9.77;;
44000;SDS011;29660;42.892;24.710;2023-04-25T16:59:29;26.80;;;20.63;;
44000;SDS011;29660;42.892;24.710;2023-04-25T17:04:51;25.85;;;20.80;;
44000;SDS011;29660;42.892;24.710;2023-04-25T17:10:13;41.92;;;37.50;;
44000;SDS011;29660;42.892;24.710;2023-04-25T17:15:36;19.45;;;14.55;;
44000;SDS011;29660;42.892;24.710;2023-04-25T17:20:58;12.13;;;10.23;;
44000;SDS011;29660;42.892;24.710;2023-04-25T17:26:20;12.55;;;10.25;;
44000;SDS011;29660;42.892;24.710;2023-04-25T17:31:43;17.08;;;13.60;;
44000;SDS011;29660;42.892;24.710;2023-04-25T17:37:05;27.17;;;20.95;;
44000;SDS011;29660;42.892;24.710;2023-04-25T17:42:28;24.85;;;20.20;;
44000;SDS011;29660;42.892;24.710;2023-04-25T17:47:51;26.55;;;18.65;;
44000;SDS011;29660;42.892;24.710;2023-04-25T17:53:14;22.15;;;19.08;;
44000;SDS011;29660;42.892;24.710;2023-04-25T17:58:36;24.80;;;18.63;;
44000;SDS011;29660;42.892;24.710;2023-04-25T18:03:59;18.88;;;13.52;;
44000;SDS011;29660;42.892;24.710;2023-04-25T18:09:24;37.47;;;28.10;;
44000;SDS011;29660;42.892;24.710;2023-04-25T18:14:47;37.28;;;27.98;;
44000;SDS011;29660;42.892;24.710;2023-04-25T18:20:10;20.88;;;17.67;;
44000;SDS011;29660;42.892;24.710;2023-04-25T18:25:36;36.17;;;25.08;;
44000;SDS011;29660;42.892;24.710;2023-04-25T18:30:58;29.45;;;21.60;;
44000;SDS011;29660;42.892;24.710;2023-04-25T18:36:20;23.52;;;18.92;;
44000;SDS011;29660;42.892;24.710;2023-04-25T18:41:42;16.98;;;12.90;;
44000;SDS011;29660;42.892;24.710;2023-04-25T18:47:17;14.48;;;9.35;;
44000;SDS011;29660;42.892;24.710;2023-04-25T18:52:39;13.70;;;11.30;;
44000;SDS011;29660;42.892;24.710;2023-04-25T18:58:02;18.85;;;14.35;;
44000;SDS011;29660;42.892;24.710;2023-04-25T19:03:24;22.45;;;15.15;;
44000;SDS011;29660;42.892;24.710;2023-04-25T19:08:48;21.55;;;13.73;;
44000;SDS011;29660;42.892;24.710;2023-04-25T19:14:13;16.35;;;12.85;;
44000;SDS011;29660;42.892;24.710;2023-04-25T19:19:36;16.55;;;11.35;;
44000;SDS011;29660;42.892;24.710;2023-04-25T19:24:59;12.13;;;8.07;;
44000;SDS011;29660;42.892;24.710;2023-04-25T19:30:30;8.52;;;6.68;;
44000;SDS011;29660;42.892;24.710;2023-04-25T19:35:53;22.70;;;13.43;;
44000;SDS011;29660;42.892;24.710;2023-04-25T19:41:16;21.35;;;15.82;;
44000;SDS011;29660;42.892;24.710;2023-04-25T19:46:38;22.30;;;16.58;;
44000;SDS011;29660;42.892;24.710;2023-04-25T19:52:20;18.52;;;15.30;;
44000;SDS011;29660;42.892;24.710;2023-04-25T19:57:42;19.25;;;16.00;;
44000;SDS011;29660;42.892;24.710;2023-04-25T20:03:05;21.33;;;15.13;;
44000;SDS011;29660;42.892;24.710;2023-04-25T20:08:27;16.65;;;12.23;;
44000;SDS011;29660;42.892;24.710;2023-04-25T20:13:49;14.60;;;11.82;;
44000;SDS011;29660;42.892;24.710;2023-04-25T20:19:12;13.77;;;9.90;;
44000;SDS011;29660;42.892;24.710;2023-04-25T20:24:34;12.30;;;9.48;;
44000;SDS011;29660;42.892;24.710;2023-04-25T20:29:56;12.90;;;8.25;;
44000;SDS011;29660;42.892;24.710;2023-04-25T20:35:23;10.70;;;7.95;;
44000;SDS011;29660;42.892;24.710;2023-04-25T20:40:45;17.38;;;14.02;;
44000;SDS011;29660;42.892;24.710;2023-04-25T20:46:08;27.35;;;21.50;;
44000;SDS011;29660;42.892;24.710;2023-04-25T20:51:31;22.73;;;19.25;;
44000;SDS011;29660;42.892;24.710;2023-04-25T20:56:53;26.58;;;21.33;;
44000;SDS011;29660;42.892;24.710;2023-04-25T21:02:15;23.13;;;19.58;;
44000;SDS011;29660;42.892;24.710;2023-04-25T21:07:37;30.48;;;23.42;;
44000;SDS011;29660;42.892;24.710;2023-04-25T21:13:00;16.17;;;12.38;;
44000;SDS011;29660;42.892;24.710;2023-04-25T21:18:22;8.07;;;6.93;;
44000;SDS011;29660;42.892;24.710;2023-04-25T21:23:45;10.05;;;6.93;;
44000;SDS011;29660;42.892;24.710;2023-04-25T21:29:07;8.65;;;7.65;;
44000;SDS011;29660;42.892;24.710;2023-04-25T21:34:29;14.05;;;7.85;;
44000;SDS011;29660;42.892;24.710;2023-04-25T21:39:51;11.75;;;7.88;;
44000;SDS011;29660;42.892;24.710;2023-04-25T21:45:14;11.55;;;9.48;;
44000;SDS011;29660;42.892;24.710;2023-04-25T21:50:36;13.48;;;12.07;;
44000;SDS011;29660;42.892;24.710;2023-04-25T21:55:58;14.57;;;12.82;;
44000;SDS011;29660;42.892;24.710;2023-04-25T22:01:20;17.67;;;15.88;;
44000;SDS011;29660;42.892;24.710;2023-04-25T22:06:42;12.20;;;9.77;;
44000;SDS011;29660;42.892;24.710;2023-04-25T22:12:06;12.73;;;8.43;;
44000;SDS011;29660;42.892;24.710;2023-04-25T22:17:28;10.05;;;9.00;;
44000;SDS011;29660;42.892;24.710;2023-04-25T22:22:52;11.30;;;9.32;;
44000;SDS011;29660;42.892;24.710;2023-04-25T22:28:15;8.98;;;8.13;;
44000;SDS011;29660;42.892;24.710;2023-04-25T22:33:37;10.80;;;7.30;;
44000;SDS011;29660;42.892;24.710;2023-04-25T22:38:59;10.27;;;9.27;;
44000;SDS011;29660;42.892;24.710;2023-04-25T22:44:21;9.18;;;7.65;;
44000;SDS011;29660;42.892;24.710;2023-04-25T22:49:43;11.70;;;10.45;;
44000;SDS011;29660;42.892;24.710;2023-04-25T22:55:06;10.95;;;9.15;;
44000;SDS011;29660;42.892;24.710;2023-04-25T23:00:28;19.38;;;14.40;;
44000;SDS011;29660;42.892;24.710;2023-04-25T23:05:51;17.85;;;12.70;;
44000;SDS011;29660;42.892;24.710;2023-04-25T23:11:13;11.93;;;10.63;;
44000;SDS011;29660;42.892;24.710;2023-04-25T23:16:35;10.88;;;9.20;;
44000;SDS011;29660;42.892;24.710;2023-04-25T23:21:57;11.82;;;9.50;;
44000;SDS011;29660;42.892;24.710;2023-04-25T23:27:20;9.90;;;8.90;;
44000;SDS011;29660;42.892;24.710;2023-04-25T23:32:43;10.30;;;9.40;;
44000;SDS011;29660;42.892;24.710;2023-04-25T23:38:05;10.68;;;9.07;;
44000;SDS011;29660;42.892;24.710;2023-04-25T23:43:27;13.90;;;12.60;;
44000;SDS011;29660;42.892;24.710;2023-04-25T23:48:49;17.02;;;15.38;;
44000;SDS011;29660;42.892;24.710;2023-04-25T23:54:11;15.07;;;13.15;;
44000;SDS011;29660;42.892;24.710;2023-04-25T23:59:34;14.60;;;13.20;;
